sensor_id;sensor_type;location;lat;lon;timestamp;temperature;humidity
70368;DHT22;57789;53.868;10.728;2022-10-19T00:01:33;10.90;99.90
70368;DHT22;57789;53.868;10.728;2022-10-19T00:04:01;10.90;99.90
70368;DHT22;57789;53.868;10.728;2022-10-19T00:06:30;10.90;99.90
70368;DHT22;57789;53.868;10.728;2022-10-19T00:09:05;10.90;99.90
70368;DHT22;57789;53.868;10.728;2022-10-19T00:11:31;10.90;99.90
70368;DHT22;57789;53.868;10.728;2022-10-19T00:13:59;10.90;99.90
70368;DHT22;57789;53.868;10.728;2022-10-19T00:16:28;10.90;99.90
70368;DHT22;57789;53.868;10.728;2022-10-19T00:18:58;10.90;99.90
70368;DHT22;57789;53.868;10.728;2022-10-19T00:21:25;10.90;99.90
70368;DHT22;57789;53.868;10.728;2022-10-19T00:23:51;10.90;99.90
70368;DHT22;57789;53.868;10.728;2022-10-19T00:26:17;10.90;99.90
70368;DHT22;57789;53.868;10.728;2022-10-19T00:28:43;10.90;99.90
70368;DHT22;57789;53.868;10.728;2022-10-19T00:31:11;10.90;99.90
70368;DHT22;57789;53.868;10.728;2022-10-19T00:33:37;10.90;99.90
70368;DHT22;57789;53.868;10.728;2022-10-19T00:36:03;10.90;99.90
70368;DHT22;57789;53.868;10.728;2022-10-19T00:38:30;10.90;99.90
70368;DHT22;57789;53.868;10.728;2022-10-19T00:40:55;10.90;99.90
70368;DHT22;57789;53.868;10.728;2022-10-19T00:43:30;10.90;99.90
70368;DHT22;57789;53.868;10.728;2022-10-19T00:45:55;11.00;99.90
70368;DHT22;57789;53.868;10.728;2022-10-19T00:48:25;11.00;99.90
70368;DHT22;57789;53.868;10.728;2022-10-19T00:50:53;11.00;99.90
70368;DHT22;57789;53.868;10.728;2022-10-19T00:53:20;11.00;99.90
70368;DHT22;57789;53.868;10.728;2022-10-19T00:55:47;11.00;99.90
70368;DHT22;57789;53.868;10.728;2022-10-19T00:58:13;11.00;99.90
70368;DHT22;57789;53.868;10.728;2022-10-19T01:00:39;11.00;99.90
70368;DHT22;57789;53.868;10.728;2022-10-19T01:03:07;11.10;99.90
70368;DHT22;57789;53.868;10.728;2022-10-19T01:05:34;11.10;99.90
70368;DHT22;57789;53.868;10.728;2022-10-19T01:08:00;11.20;99.90
70368;DHT22;57789;53.868;10.728;2022-10-19T01:14:18;11.20;99.90
70368;DHT22;57789;53.868;10.728;2022-10-19T01:22:35;11.20;99.90
70368;DHT22;57789;53.868;10.728;2022-10-19T01:25:22;11.20;99.90
70368;DHT22;57789;53.868;10.728;2022-10-19T01:28:24;11.20;99.90
70368;DHT22;57789;53.868;10.728;2022-10-19T01:34:17;11.30;99.90
70368;DHT22;57789;53.868;10.728;2022-10-19T01:44:52;11.30;99.90
70368;DHT22;57789;53.868;10.728;2022-10-19T01:47:40;11.30;99.90
70368;DHT22;57789;53.868;10.728;2022-10-19T01:50:15;11.30;99.90
70368;DHT22;57789;53.868;10.728;2022-10-19T01:52:42;11.30;99.90
70368;DHT22;57789;53.868;10.728;2022-10-19T01:55:10;11.30;99.90
70368;DHT22;57789;53.868;10.728;2022-10-19T01:57:40;11.30;99.90
70368;DHT22;57789;53.868;10.728;2022-10-19T02:00:10;11.30;99.90
70368;DHT22;57789;53.868;10.728;2022-10-19T02:02:42;11.40;99.90
70368;DHT22;57789;53.868;10.728;2022-10-19T02:05:12;11.40;99.90
70368;DHT22;57789;53.868;10.728;2022-10-19T02:07:45;11.30;99.90
70368;DHT22;57789;53.868;10.728;2022-10-19T02:10:12;11.40;99.90
70368;DHT22;57789;53.868;10.728;2022-10-19T02:12:39;11.40;99.90
70368;DHT22;57789;53.868;10.728;2022-10-19T02:15:09;11.40;99.90
70368;DHT22;57789;53.868;10.728;2022-10-19T02:17:41;11.40;99.90
70368;DHT22;57789;53.868;10.728;2022-10-19T02:20:08;11.40;99.90
70368;DHT22;57789;53.868;10.728;2022-10-19T02:22:34;11.40;99.90
70368;DHT22;57789;53.868;10.728;2022-10-19T02:25:00;11.40;99.90
70368;DHT22;57789;53.868;10.728;2022-10-19T02:27:26;11.40;99.90
70368;DHT22;57789;53.868;10.728;2022-10-19T02:29:53;11.40;99.90
70368;DHT22;57789;53.868;10.728;2022-10-19T02:32:19;11.40;99.90
70368;DHT22;57789;53.868;10.728;2022-10-19T02:34:44;11.40;99.90
70368;DHT22;57789;53.868;10.728;2022-10-19T02:37:10;11.40;99.90
70368;DHT22;57789;53.868;10.728;2022-10-19T02:39:37;11.40;99.90
70368;DHT22;57789;53.868;10.728;2022-10-19T02:44:56;11.40;99.90
70368;DHT22;57789;53.868;10.728;2022-10-19T02:47:35;11.40;99.90
70368;DHT22;57789;53.868;10.728;2022-10-19T02:50:04;11.40;99.90
70368;DHT22;57789;53.868;10.728;2022-10-19T02:52:30;11.40;99.90
70368;DHT22;57789;53.868;10.728;2022-10-19T02:54:56;11.40;99.90
70368;DHT22;57789;53.868;10.728;2022-10-19T02:57:24;11.40;99.90
70368;DHT22;57789;53.868;10.728;2022-10-19T02:59:51;11.40;99.90
70368;DHT22;57789;53.868;10.728;2022-10-19T03:02:18;11.40;99.90
70368;DHT22;57789;53.868;10.728;2022-10-19T03:04:44;11.40;99.90
70368;DHT22;57789;53.868;10.728;2022-10-19T03:07:11;11.30;99.90
70368;DHT22;57789;53.868;10.728;2022-10-19T03:09:39;11.40;99.90
70368;DHT22;57789;53.868;10.728;2022-10-19T03:12:04;11.40;99.90
70368;DHT22;57789;53.868;10.728;2022-10-19T03:14:30;11.40;99.90
70368;DHT22;57789;53.868;10.728;2022-10-19T03:16:56;11.40;99.90
70368;DHT22;57789;53.868;10.728;2022-10-19T03:19:22;11.40;99.90
70368;DHT22;57789;53.868;10.728;2022-10-19T03:21:47;11.40;99.90
70368;DHT22;57789;53.868;10.728;2022-10-19T03:24:13;11.30;99.90
70368;DHT22;57789;53.868;10.728;2022-10-19T03:26:38;11.30;99.90
70368;DHT22;57789;53.868;10.728;2022-10-19T03:29:04;11.30;99.90
70368;DHT22;57789;53.868;10.728;2022-10-19T03:31:30;11.30;99.90
70368;DHT22;57789;53.868;10.728;2022-10-19T03:33:56;11.30;99.90
70368;DHT22;57789;53.868;10.728;2022-10-19T03:36:25;11.30;99.90
70368;DHT22;57789;53.868;10.728;2022-10-19T03:38:53;11.30;99.90
70368;DHT22;57789;53.868;10.728;2022-10-19T03:41:20;11.30;99.90
70368;DHT22;57789;53.868;10.728;2022-10-19T03:43:46;11.30;99.90
70368;DHT22;57789;53.868;10.728;2022-10-19T03:46:12;11.30;99.90
70368;DHT22;57789;53.868;10.728;2022-10-19T03:48:38;11.30;99.90
70368;DHT22;57789;53.868;10.728;2022-10-19T03:51:09;11.40;99.90
70368;DHT22;57789;53.868;10.728;2022-10-19T03:53:35;11.30;99.90
70368;DHT22;57789;53.868;10.728;2022-10-19T03:56:06;11.30;99.90
70368;DHT22;57789;53.868;10.728;2022-10-19T03:58:35;11.40;99.90
70368;DHT22;57789;53.868;10.728;2022-10-19T04:01:05;11.40;99.90
70368;DHT22;57789;53.868;10.728;2022-10-19T04:03:31;11.40;99.90
70368;DHT22;57789;53.868;10.728;2022-10-19T04:06:08;11.40;99.90
70368;DHT22;57789;53.868;10.728;2022-10-19T04:08:34;11.40;99.90
70368;DHT22;57789;53.868;10.728;2022-10-19T04:11:01;11.40;99.90
70368;DHT22;57789;53.868;10.728;2022-10-19T04:13:28;11.40;99.90
70368;DHT22;57789;53.868;10.728;2022-10-19T04:15:54;11.40;99.90
70368;DHT22;57789;53.868;10.728;2022-10-19T04:18:19;11.40;99.90
70368;DHT22;57789;53.868;10.728;2022-10-19T04:20:45;11.40;99.90
70368;DHT22;57789;53.868;10.728;2022-10-19T04:23:11;11.40;99.90
70368;DHT22;57789;53.868;10.728;2022-10-19T04:25:36;11.40;99.90
70368;DHT22;57789;53.868;10.728;2022-10-19T04:28:02;11.40;99.90
70368;DHT22;57789;53.868;10.728;2022-10-19T04:30:27;11.40;99.90
70368;DHT22;57789;53.868;10.728;2022-10-19T04:32:53;11.30;99.90
70368;DHT22;57789;53.868;10.728;2022-10-19T04:35:19;11.40;99.90
70368;DHT22;57789;53.868;10.728;2022-10-19T04:37:44;11.40;99.90
70368;DHT22;57789;53.868;10.728;2022-10-19T04:40:10;11.40;99.90
70368;DHT22;57789;53.868;10.728;2022-10-19T04:42:36;11.30;99.90
70368;DHT22;57789;53.868;10.728;2022-10-19T04:45:02;11.30;99.90
70368;DHT22;57789;53.868;10.728;2022-10-19T04:47:28;11.30;99.90
70368;DHT22;57789;53.868;10.728;2022-10-19T04:49:54;11.30;99.90
70368;DHT22;57789;53.868;10.728;2022-10-19T04:52:20;11.30;99.90
70368;DHT22;57789;53.868;10.728;2022-10-19T04:54:46;11.30;99.90
70368;DHT22;57789;53.868;10.728;2022-10-19T04:57:11;11.30;99.90
70368;DHT22;57789;53.868;10.728;2022-10-19T04:59:37;11.20;99.90
70368;DHT22;57789;53.868;10.728;2022-10-19T05:02:03;11.30;99.90
70368;DHT22;57789;53.868;10.728;2022-10-19T05:04:28;11.20;99.90
70368;DHT22;57789;53.868;10.728;2022-10-19T05:06:54;11.30;99.90
70368;DHT22;57789;53.868;10.728;2022-10-19T05:09:20;11.20;99.90
70368;DHT22;57789;53.868;10.728;2022-10-19T05:11:48;11.30;99.90
70368;DHT22;57789;53.868;10.728;2022-10-19T05:14:14;11.30;99.90
70368;DHT22;57789;53.868;10.728;2022-10-19T05:16:39;11.30;99.90
70368;DHT22;57789;53.868;10.728;2022-10-19T05:19:05;11.20;99.90
70368;DHT22;57789;53.868;10.728;2022-10-19T05:21:30;11.20;99.90
70368;DHT22;57789;53.868;10.728;2022-10-19T05:23:56;11.20;99.90
70368;DHT22;57789;53.868;10.728;2022-10-19T05:26:24;11.20;99.90
70368;DHT22;57789;53.868;10.728;2022-10-19T05:28:55;11.20;99.90
70368;DHT22;57789;53.868;10.728;2022-10-19T05:31:23;11.10;99.90
70368;DHT22;57789;53.868;10.728;2022-10-19T05:33:49;11.20;99.90
70368;DHT22;57789;53.868;10.728;2022-10-19T05:36:19;11.20;99.90
70368;DHT22;57789;53.868;10.728;2022-10-19T05:38:47;11.10;99.90
70368;DHT22;57789;53.868;10.728;2022-10-19T05:41:13;11.10;99.90
70368;DHT22;57789;53.868;10.728;2022-10-19T05:43:41;11.10;99.90
70368;DHT22;57789;53.868;10.728;2022-10-19T05:46:09;11.00;99.90
70368;DHT22;57789;53.868;10.728;2022-10-19T05:48:36;11.10;99.90
70368;DHT22;57789;53.868;10.728;2022-10-19T05:51:03;11.10;99.90
70368;DHT22;57789;53.868;10.728;2022-10-19T05:53:30;11.00;99.90
70368;DHT22;57789;53.868;10.728;2022-10-19T05:55:56;11.00;99.90
70368;DHT22;57789;53.868;10.728;2022-10-19T05:58:22;11.00;99.90
70368;DHT22;57789;53.868;10.728;2022-10-19T06:00:56;10.90;99.90
70368;DHT22;57789;53.868;10.728;2022-10-19T06:03:23;10.90;99.90
70368;DHT22;57789;53.868;10.728;2022-10-19T06:05:49;10.90;99.90
70368;DHT22;57789;53.868;10.728;2022-10-19T06:08:18;10.80;99.90
70368;DHT22;57789;53.868;10.728;2022-10-19T06:10:45;10.80;99.90
70368;DHT22;57789;53.868;10.728;2022-10-19T06:13:11;10.70;99.90
70368;DHT22;57789;53.868;10.728;2022-10-19T06:15:37;10.70;99.90
70368;DHT22;57789;53.868;10.728;2022-10-19T06:18:11;10.60;99.90
70368;DHT22;57789;53.868;10.728;2022-10-19T06:20:38;10.60;99.90
70368;DHT22;57789;53.868;10.728;2022-10-19T06:23:05;10.50;99.90
70368;DHT22;57789;53.868;10.728;2022-10-19T06:25:32;10.50;99.90
70368;DHT22;57789;53.868;10.728;2022-10-19T06:27:58;10.60;99.90
70368;DHT22;57789;53.868;10.728;2022-10-19T06:30:24;10.60;99.90
70368;DHT22;57789;53.868;10.728;2022-10-19T06:32:50;10.60;99.90
70368;DHT22;57789;53.868;10.728;2022-10-19T06:35:16;10.60;99.90
70368;DHT22;57789;53.868;10.728;2022-10-19T06:37:42;10.60;99.90
70368;DHT22;57789;53.868;10.728;2022-10-19T06:40:09;10.60;99.90
70368;DHT22;57789;53.868;10.728;2022-10-19T06:42:35;10.60;99.90
70368;DHT22;57789;53.868;10.728;2022-10-19T06:45:08;10.70;99.90
70368;DHT22;57789;53.868;10.728;2022-10-19T06:47:35;10.70;99.90
70368;DHT22;57789;53.868;10.728;2022-10-19T06:50:02;10.70;99.90
70368;DHT22;57789;53.868;10.728;2022-10-19T06:52:28;10.60;99.90
70368;DHT22;57789;53.868;10.728;2022-10-19T06:54:53;10.60;99.90
70368;DHT22;57789;53.868;10.728;2022-10-19T06:57:19;10.60;99.90
70368;DHT22;57789;53.868;10.728;2022-10-19T06:59:45;10.60;99.90
70368;DHT22;57789;53.868;10.728;2022-10-19T07:02:11;10.60;99.90
70368;DHT22;57789;53.868;10.728;2022-10-19T07:04:37;10.60;99.90
70368;DHT22;57789;53.868;10.728;2022-10-19T07:07:03;10.60;99.90
70368;DHT22;57789;53.868;10.728;2022-10-19T07:09:29;10.60;99.90
70368;DHT22;57789;53.868;10.728;2022-10-19T07:11:54;10.60;99.90
70368;DHT22;57789;53.868;10.728;2022-10-19T07:14:20;10.60;99.90
70368;DHT22;57789;53.868;10.728;2022-10-19T07:16:49;10.60;99.90
70368;DHT22;57789;53.868;10.728;2022-10-19T07:19:14;10.60;99.90
70368;DHT22;57789;53.868;10.728;2022-10-19T07:21:40;10.70;99.90
70368;DHT22;57789;53.868;10.728;2022-10-19T07:24:08;10.70;99.90
70368;DHT22;57789;53.868;10.728;2022-10-19T07:26:34;10.70;99.90
70368;DHT22;57789;53.868;10.728;2022-10-19T07:29:00;10.70;99.90
70368;DHT22;57789;53.868;10.728;2022-10-19T07:31:28;10.70;99.90
70368;DHT22;57789;53.868;10.728;2022-10-19T07:33:55;10.70;99.90
70368;DHT22;57789;53.868;10.728;2022-10-19T07:36:22;10.80;99.90
70368;DHT22;57789;53.868;10.728;2022-10-19T07:38:48;10.80;99.90
70368;DHT22;57789;53.868;10.728;2022-10-19T07:41:15;10.80;99.90
70368;DHT22;57789;53.868;10.728;2022-10-19T07:43:43;10.80;99.90
70368;DHT22;57789;53.868;10.728;2022-10-19T07:46:11;10.90;99.90
70368;DHT22;57789;53.868;10.728;2022-10-19T07:48:37;11.00;99.90
70368;DHT22;57789;53.868;10.728;2022-10-19T07:51:05;11.00;99.90
70368;DHT22;57789;53.868;10.728;2022-10-19T07:53:32;11.10;99.90
70368;DHT22;57789;53.868;10.728;2022-10-19T07:56:06;11.10;99.90
70368;DHT22;57789;53.868;10.728;2022-10-19T07:58:33;11.20;99.90
70368;DHT22;57789;53.868;10.728;2022-10-19T08:01:11;11.20;99.90
70368;DHT22;57789;53.868;10.728;2022-10-19T08:03:38;11.20;99.90
70368;DHT22;57789;53.868;10.728;2022-10-19T08:06:05;11.30;99.90
70368;DHT22;57789;53.868;10.728;2022-10-19T08:08:32;11.30;99.90
70368;DHT22;57789;53.868;10.728;2022-10-19T08:11:09;11.40;99.90
70368;DHT22;57789;53.868;10.728;2022-10-19T08:13:35;11.40;99.90
70368;DHT22;57789;53.868;10.728;2022-10-19T08:16:01;11.40;99.90
70368;DHT22;57789;53.868;10.728;2022-10-19T08:18:27;11.50;99.90
70368;DHT22;57789;53.868;10.728;2022-10-19T08:20:53;11.50;99.90
70368;DHT22;57789;53.868;10.728;2022-10-19T08:23:19;11.50;99.90
70368;DHT22;57789;53.868;10.728;2022-10-19T08:25:44;11.60;99.90
70368;DHT22;57789;53.868;10.728;2022-10-19T08:28:10;11.60;99.90
70368;DHT22;57789;53.868;10.728;2022-10-19T08:30:36;11.60;99.90
70368;DHT22;57789;53.868;10.728;2022-10-19T08:33:02;11.60;99.90
70368;DHT22;57789;53.868;10.728;2022-10-19T08:35:30;11.70;99.90
70368;DHT22;57789;53.868;10.728;2022-10-19T08:37:56;11.80;99.90
70368;DHT22;57789;53.868;10.728;2022-10-19T08:40:25;11.90;99.90
70368;DHT22;57789;53.868;10.728;2022-10-19T08:43:18;12.10;99.90
70368;DHT22;57789;53.868;10.728;2022-10-19T08:46:13;12.10;99.90
70368;DHT22;57789;53.868;10.728;2022-10-19T08:48:42;12.30;99.90
70368;DHT22;57789;53.868;10.728;2022-10-19T08:51:11;12.40;99.90
70368;DHT22;57789;53.868;10.728;2022-10-19T08:56:29;12.50;99.90
70368;DHT22;57789;53.868;10.728;2022-10-19T08:59:29;12.70;99.90
70368;DHT22;57789;53.868;10.728;2022-10-19T09:02:27;12.90;99.90
70368;DHT22;57789;53.868;10.728;2022-10-19T09:05:02;13.20;99.90
70368;DHT22;57789;53.868;10.728;2022-10-19T09:07:35;13.30;99.90
70368;DHT22;57789;53.868;10.728;2022-10-19T09:17:57;13.40;99.90
70368;DHT22;57789;53.868;10.728;2022-10-19T09:20:33;13.30;99.90
70368;DHT22;57789;53.868;10.728;2022-10-19T09:23:25;13.30;99.90
70368;DHT22;57789;53.868;10.728;2022-10-19T09:25:53;13.40;99.90
70368;DHT22;57789;53.868;10.728;2022-10-19T09:30:55;13.40;99.90
70368;DHT22;57789;53.868;10.728;2022-10-19T09:33:32;13.40;99.90
70368;DHT22;57789;53.868;10.728;2022-10-19T09:36:02;13.30;99.90
70368;DHT22;57789;53.868;10.728;2022-10-19T09:38:29;13.20;99.90
70368;DHT22;57789;53.868;10.728;2022-10-19T09:40:57;13.10;99.90
70368;DHT22;57789;53.868;10.728;2022-10-19T09:43:24;13.10;99.90
70368;DHT22;57789;53.868;10.728;2022-10-19T09:46:10;13.00;99.90
70368;DHT22;57789;53.868;10.728;2022-10-19T09:48:51;13.10;99.90
70368;DHT22;57789;53.868;10.728;2022-10-19T09:51:17;13.10;99.90
70368;DHT22;57789;53.868;10.728;2022-10-19T09:53:50;13.10;99.90
70368;DHT22;57789;53.868;10.728;2022-10-19T09:56:21;13.00;99.90
70368;DHT22;57789;53.868;10.728;2022-10-19T09:58:55;12.90;99.90
70368;DHT22;57789;53.868;10.728;2022-10-19T10:01:38;12.90;99.90
70368;DHT22;57789;53.868;10.728;2022-10-19T10:04:15;13.10;99.90
70368;DHT22;57789;53.868;10.728;2022-10-19T10:06:42;13.20;99.90
70368;DHT22;57789;53.868;10.728;2022-10-19T10:09:15;13.30;99.90
70368;DHT22;57789;53.868;10.728;2022-10-19T10:11:42;13.40;99.90
70368;DHT22;57789;53.868;10.728;2022-10-19T10:14:31;13.50;99.90
70368;DHT22;57789;53.868;10.728;2022-10-19T10:17:04;13.50;99.90
70368;DHT22;57789;53.868;10.728;2022-10-19T10:19:32;13.70;99.90
70368;DHT22;57789;53.868;10.728;2022-10-19T10:21:59;13.90;99.90
70368;DHT22;57789;53.868;10.728;2022-10-19T10:24:33;13.90;99.90
70368;DHT22;57789;53.868;10.728;2022-10-19T10:27:01;13.80;99.90
70368;DHT22;57789;53.868;10.728;2022-10-19T10:29:30;13.70;99.90
70368;DHT22;57789;53.868;10.728;2022-10-19T10:34:33;13.50;99.90
70368;DHT22;57789;53.868;10.728;2022-10-19T10:37:00;13.50;99.90
70368;DHT22;57789;53.868;10.728;2022-10-19T10:39:28;13.50;99.90
70368;DHT22;57789;53.868;10.728;2022-10-19T10:41:58;13.60;99.90
70368;DHT22;57789;53.868;10.728;2022-10-19T10:44:26;13.60;99.90
70368;DHT22;57789;53.868;10.728;2022-10-19T10:47:03;13.70;99.90
70368;DHT22;57789;53.868;10.728;2022-10-19T10:49:36;13.70;99.90
70368;DHT22;57789;53.868;10.728;2022-10-19T10:52:14;13.60;99.90
70368;DHT22;57789;53.868;10.728;2022-10-19T10:55:00;13.50;99.90
70368;DHT22;57789;53.868;10.728;2022-10-19T10:57:33;13.50;99.90
70368;DHT22;57789;53.868;10.728;2022-10-19T11:00:06;13.50;99.90
70368;DHT22;57789;53.868;10.728;2022-10-19T11:05:23;13.60;99.90
70368;DHT22;57789;53.868;10.728;2022-10-19T11:08:04;13.70;99.90
70368;DHT22;57789;53.868;10.728;2022-10-19T11:10:42;13.90;99.90
70368;DHT22;57789;53.868;10.728;2022-10-19T11:13:32;14.10;99.90
70368;DHT22;57789;53.868;10.728;2022-10-19T11:16:16;14.30;99.90
70368;DHT22;57789;53.868;10.728;2022-10-19T11:18:55;14.60;99.90
70368;DHT22;57789;53.868;10.728;2022-10-19T11:21:43;14.50;99.90
70368;DHT22;57789;53.868;10.728;2022-10-19T11:24:21;14.60;99.90
70368;DHT22;57789;53.868;10.728;2022-10-19T11:27:08;14.60;99.90
70368;DHT22;57789;53.868;10.728;2022-10-19T11:29:57;14.50;99.90
70368;DHT22;57789;53.868;10.728;2022-10-19T11:40:42;14.10;99.90
70368;DHT22;57789;53.868;10.728;2022-10-19T11:46:10;14.00;99.90
70368;DHT22;57789;53.868;10.728;2022-10-19T11:49:14;13.70;99.90
70368;DHT22;57789;53.868;10.728;2022-10-19T11:54:33;13.60;99.90
70368;DHT22;57789;53.868;10.728;2022-10-19T12:00:07;13.40;99.90
70368;DHT22;57789;53.868;10.728;2022-10-19T12:08:45;13.10;99.90
70368;DHT22;57789;53.868;10.728;2022-10-19T12:13:47;13.10;99.90
70368;DHT22;57789;53.868;10.728;2022-10-19T12:16:16;13.00;99.90
70368;DHT22;57789;53.868;10.728;2022-10-19T12:18:50;13.10;99.90
70368;DHT22;57789;53.868;10.728;2022-10-19T12:21:23;13.00;99.90
70368;DHT22;57789;53.868;10.728;2022-10-19T12:23:50;13.00;99.90
70368;DHT22;57789;53.868;10.728;2022-10-19T12:26:19;13.10;99.90
70368;DHT22;57789;53.868;10.728;2022-10-19T12:28:55;12.90;99.90
70368;DHT22;57789;53.868;10.728;2022-10-19T12:31:23;13.00;99.90
70368;DHT22;57789;53.868;10.728;2022-10-19T12:33:59;13.00;99.90
70368;DHT22;57789;53.868;10.728;2022-10-19T12:36:46;13.00;99.90
70368;DHT22;57789;53.868;10.728;2022-10-19T12:39:55;12.90;99.90
70368;DHT22;57789;53.868;10.728;2022-10-19T12:42:37;13.00;99.90
70368;DHT22;57789;53.868;10.728;2022-10-19T12:45:24;12.90;99.90
70368;DHT22;57789;53.868;10.728;2022-10-19T12:53:26;12.90;99.90
70368;DHT22;57789;53.868;10.728;2022-10-19T12:58:48;12.90;99.90
70368;DHT22;57789;53.868;10.728;2022-10-19T13:01:27;12.90;99.90
70368;DHT22;57789;53.868;10.728;2022-10-19T13:06:37;12.80;99.90
70368;DHT22;57789;53.868;10.728;2022-10-19T13:09:07;12.90;99.90
70368;DHT22;57789;53.868;10.728;2022-10-19T13:11:34;12.90;99.90
70368;DHT22;57789;53.868;10.728;2022-10-19T13:17:06;12.80;99.90
70368;DHT22;57789;53.868;10.728;2022-10-19T13:19:32;12.80;99.90
70368;DHT22;57789;53.868;10.728;2022-10-19T13:24:30;12.80;99.90
70368;DHT22;57789;53.868;10.728;2022-10-19T13:35:22;12.80;99.90
70368;DHT22;57789;53.868;10.728;2022-10-19T13:40:36;12.70;99.90
70368;DHT22;57789;53.868;10.728;2022-10-19T13:43:03;12.80;99.90
70368;DHT22;57789;53.868;10.728;2022-10-19T13:45:29;12.70;99.90
70368;DHT22;57789;53.868;10.728;2022-10-19T13:48:07;12.60;99.90
70368;DHT22;57789;53.868;10.728;2022-10-19T13:50:43;12.60;99.90
70368;DHT22;57789;53.868;10.728;2022-10-19T13:53:29;12.50;99.90
70368;DHT22;57789;53.868;10.728;2022-10-19T14:01:25;12.50;99.90
70368;DHT22;57789;53.868;10.728;2022-10-19T14:07:09;12.50;99.90
70368;DHT22;57789;53.868;10.728;2022-10-19T14:12:27;12.50;99.90
70368;DHT22;57789;53.868;10.728;2022-10-19T14:14:53;12.50;99.90
70368;DHT22;57789;53.868;10.728;2022-10-19T14:17:22;12.50;99.90
70368;DHT22;57789;53.868;10.728;2022-10-19T14:19:54;12.50;99.90
70368;DHT22;57789;53.868;10.728;2022-10-19T14:22:32;12.50;99.90
70368;DHT22;57789;53.868;10.728;2022-10-19T14:27:32;12.40;99.90
70368;DHT22;57789;53.868;10.728;2022-10-19T14:29:59;12.40;99.90
70368;DHT22;57789;53.868;10.728;2022-10-19T14:32:27;12.40;99.90
70368;DHT22;57789;53.868;10.728;2022-10-19T14:34:56;12.40;99.90
70368;DHT22;57789;53.868;10.728;2022-10-19T14:37:24;12.40;99.90
70368;DHT22;57789;53.868;10.728;2022-10-19T14:42:45;12.30;99.90
70368;DHT22;57789;53.868;10.728;2022-10-19T14:45:22;12.30;99.90
70368;DHT22;57789;53.868;10.728;2022-10-19T14:50:18;12.30;99.90
70368;DHT22;57789;53.868;10.728;2022-10-19T14:52:45;12.20;99.90
70368;DHT22;57789;53.868;10.728;2022-10-19T14:55:16;12.10;99.90
70368;DHT22;57789;53.868;10.728;2022-10-19T14:57:46;12.10;99.90
70368;DHT22;57789;53.868;10.728;2022-10-19T15:00:21;12.10;99.90
70368;DHT22;57789;53.868;10.728;2022-10-19T15:02:56;12.00;99.90
70368;DHT22;57789;53.868;10.728;2022-10-19T15:05:25;11.90;99.90
70368;DHT22;57789;53.868;10.728;2022-10-19T15:07:51;11.90;99.90
70368;DHT22;57789;53.868;10.728;2022-10-19T15:10:27;11.80;99.90
70368;DHT22;57789;53.868;10.728;2022-10-19T15:13:03;11.70;99.90
70368;DHT22;57789;53.868;10.728;2022-10-19T15:15:33;11.70;99.90
70368;DHT22;57789;53.868;10.728;2022-10-19T15:20:36;11.50;99.90
70368;DHT22;57789;53.868;10.728;2022-10-19T15:26:01;11.40;99.90
70368;DHT22;57789;53.868;10.728;2022-10-19T15:28:33;11.40;99.90
70368;DHT22;57789;53.868;10.728;2022-10-19T15:31:03;11.30;99.90
70368;DHT22;57789;53.868;10.728;2022-10-19T15:33:29;11.30;99.90
70368;DHT22;57789;53.868;10.728;2022-10-19T15:36:09;11.20;99.90
70368;DHT22;57789;53.868;10.728;2022-10-19T15:41:31;10.90;99.90
70368;DHT22;57789;53.868;10.728;2022-10-19T15:44:02;10.80;99.90
70368;DHT22;57789;53.868;10.728;2022-10-19T15:46:34;10.70;99.90
70368;DHT22;57789;53.868;10.728;2022-10-19T15:49:50;10.70;99.90
70368;DHT22;57789;53.868;10.728;2022-10-19T15:51:49;10.70;99.90
70368;DHT22;57789;53.868;10.728;2022-10-19T15:54:16;10.60;99.90
70368;DHT22;57789;53.868;10.728;2022-10-19T15:56:45;10.50;99.90
70368;DHT22;57789;53.868;10.728;2022-10-19T15:59:16;10.30;99.90
70368;DHT22;57789;53.868;10.728;2022-10-19T16:01:43;10.20;99.90
70368;DHT22;57789;53.868;10.728;2022-10-19T16:04:10;10.10;99.90
70368;DHT22;57789;53.868;10.728;2022-10-19T16:06:38;10.10;99.90
70368;DHT22;57789;53.868;10.728;2022-10-19T16:09:05;10.00;99.90
70368;DHT22;57789;53.868;10.728;2022-10-19T16:11:32;9.90;99.90
70368;DHT22;57789;53.868;10.728;2022-10-19T16:14:00;9.80;99.90
70368;DHT22;57789;53.868;10.728;2022-10-19T16:16:31;9.70;99.90
70368;DHT22;57789;53.868;10.728;2022-10-19T16:18:57;9.60;99.90
70368;DHT22;57789;53.868;10.728;2022-10-19T16:21:34;9.40;99.90
70368;DHT22;57789;53.868;10.728;2022-10-19T16:24:00;9.30;99.90
70368;DHT22;57789;53.868;10.728;2022-10-19T16:26:26;9.20;99.90
70368;DHT22;57789;53.868;10.728;2022-10-19T16:28:53;9.10;99.90
70368;DHT22;57789;53.868;10.728;2022-10-19T16:31:19;9.00;99.90
70368;DHT22;57789;53.868;10.728;2022-10-19T16:33:45;8.90;99.90
70368;DHT22;57789;53.868;10.728;2022-10-19T16:36:11;8.80;99.90
70368;DHT22;57789;53.868;10.728;2022-10-19T16:38:37;8.80;99.90
70368;DHT22;57789;53.868;10.728;2022-10-19T16:41:06;8.80;99.90
70368;DHT22;57789;53.868;10.728;2022-10-19T16:43:35;8.80;99.90
70368;DHT22;57789;53.868;10.728;2022-10-19T16:46:02;8.80;99.90
70368;DHT22;57789;53.868;10.728;2022-10-19T16:48:29;8.80;99.90
70368;DHT22;57789;53.868;10.728;2022-10-19T16:53:35;8.70;99.90
70368;DHT22;57789;53.868;10.728;2022-10-19T16:56:05;8.70;99.90
70368;DHT22;57789;53.868;10.728;2022-10-19T16:58:32;8.60;99.90
70368;DHT22;57789;53.868;10.728;2022-10-19T17:01:06;8.50;99.90
70368;DHT22;57789;53.868;10.728;2022-10-19T17:03:32;8.30;99.90
70368;DHT22;57789;53.868;10.728;2022-10-19T17:06:01;8.20;99.90
70368;DHT22;57789;53.868;10.728;2022-10-19T17:08:28;8.10;99.90
70368;DHT22;57789;53.868;10.728;2022-10-19T17:10:55;8.00;99.90
70368;DHT22;57789;53.868;10.728;2022-10-19T17:13:20;8.10;99.90
70368;DHT22;57789;53.868;10.728;2022-10-19T17:15:46;8.10;99.90
70368;DHT22;57789;53.868;10.728;2022-10-19T17:18:11;7.90;99.90
70368;DHT22;57789;53.868;10.728;2022-10-19T17:20:37;7.90;99.90
70368;DHT22;57789;53.868;10.728;2022-10-19T17:23:03;7.80;99.90
70368;DHT22;57789;53.868;10.728;2022-10-19T17:25:28;7.80;99.90
70368;DHT22;57789;53.868;10.728;2022-10-19T17:27:54;7.80;99.90
70368;DHT22;57789;53.868;10.728;2022-10-19T17:30:20;7.70;99.90
70368;DHT22;57789;53.868;10.728;2022-10-19T17:32:45;7.60;99.90
70368;DHT22;57789;53.868;10.728;2022-10-19T17:35:11;7.60;99.90
70368;DHT22;57789;53.868;10.728;2022-10-19T17:37:37;7.60;99.90
70368;DHT22;57789;53.868;10.728;2022-10-19T17:40:03;7.60;99.90